createdAt,value
2018-07-15T00:01:05.344Z,64.35
2018-07-15T00:03:34.220Z,63.42
2018-07-15T00:06:00.894Z,63.87
2018-07-15T00:08:27.576Z,63.07
2018-07-15T00:10:55.236Z,63.41
2018-07-15T00:13:22.857Z,63.95
2018-07-15T00:15:50.505Z,63.77
2018-07-15T00:18:18.292Z,62.79
2018-07-15T00:20:45.913Z,63.28
2018-07-15T00:23:12.621Z,63.68
2018-07-15T00:25:39.289Z,63.38
2018-07-15T00:28:07.272Z,63.53
2018-07-15T00:30:36.362Z,62.85
2018-07-15T00:33:05.103Z,63.49
2018-07-15T00:35:31.788Z,62.38
2018-07-15T00:37:59.404Z,62.61
2018-07-15T00:40:26.063Z,63.07
2018-07-15T00:42:52.822Z,62.43
2018-07-15T00:45:19.561Z,63.41
2018-07-15T00:47:46.262Z,63.24
2018-07-15T00:50:12.926Z,62.38
2018-07-15T00:52:39.589Z,63.56
2018-07-15T00:55:06.308Z,63.53
2018-07-15T00:57:35.096Z,63.53
2018-07-15T01:00:01.777Z,62.84
2018-07-15T01:02:28.436Z,62.01
2018-07-15T01:04:56.052Z,62.86
2018-07-15T01:07:22.719Z,62.84
2018-07-15T01:09:49.409Z,62.47
2018-07-15T01:12:16.069Z,62.28
2018-07-15T01:14:42.743Z,62.06
2018-07-15T01:17:09.393Z,61.72
2018-07-15T01:19:37.536Z,62.41
2018-07-15T01:22:04.238Z,62.60
2018-07-15T01:24:30.912Z,61.43
2018-07-15T01:26:57.625Z,62.62
2018-07-15T01:29:24.302Z,62.09
2018-07-15T01:31:50.973Z,63.00
2018-07-15T01:34:17.631Z,63.19
2018-07-15T01:36:44.312Z,62.45
2018-07-15T01:39:10.997Z,62.18
2018-07-15T01:41:37.697Z,62.67
2018-07-15T01:44:04.383Z,62.85
2018-07-15T01:46:31.702Z,62.58
2018-07-15T01:48:58.373Z,62.88
2018-07-15T01:51:25.053Z,62.07
2018-07-15T01:53:51.713Z,63.00
2018-07-15T01:56:18.376Z,62.91
2018-07-15T01:58:45.053Z,62.22
2018-07-15T02:01:11.817Z,62.05
2018-07-15T02:03:38.494Z,62.30
2018-07-15T02:06:06.345Z,61.80
2018-07-15T02:08:34.113Z,61.54
2018-07-15T02:11:00.773Z,61.50
2018-07-15T02:13:27.446Z,61.81
2018-07-15T02:15:54.118Z,61.90
2018-07-15T02:18:20.782Z,61.79
2018-07-15T02:20:47.455Z,61.08
2018-07-15T02:23:14.150Z,61.92
2018-07-15T02:25:40.812Z,61.70
2018-07-15T02:28:07.477Z,61.20
2018-07-15T02:30:35.837Z,61.42
2018-07-15T02:33:03.560Z,61.74
2018-07-15T02:35:30.221Z,61.89
2018-07-15T02:37:56.947Z,61.23
2018-07-15T02:40:23.640Z,61.28
2018-07-15T02:42:50.321Z,62.00
2018-07-15T02:45:16.981Z,62.00
2018-07-15T02:47:43.732Z,61.54
2018-07-15T02:50:10.377Z,61.20
2018-07-15T02:52:37.113Z,61.39
2018-07-15T02:55:04.429Z,60.64
2018-07-15T02:57:33.565Z,62.03
2018-07-15T03:00:00.266Z,62.14
2018-07-15T03:02:26.990Z,61.70
2018-07-15T03:04:53.677Z,62.01
2018-07-15T03:07:20.374Z,61.71
2018-07-15T03:09:47.056Z,61.46
2018-07-15T03:12:13.743Z,61.45
2018-07-15T03:14:40.419Z,61.00
2018-07-15T03:17:07.108Z,61.71
2018-07-15T03:19:34.929Z,61.18
2018-07-15T03:22:01.613Z,61.79
2018-07-15T03:24:28.272Z,61.39
2018-07-15T03:26:54.925Z,60.95
2018-07-15T03:29:21.617Z,61.29
2018-07-15T03:31:48.313Z,61.77
2018-07-15T03:34:15.087Z,61.55
2018-07-15T03:36:41.713Z,60.71
2018-07-15T03:39:09.222Z,61.64
2018-07-15T03:41:37.068Z,61.16
2018-07-15T03:44:06.755Z,61.52
2018-07-15T03:46:33.922Z,62.02
2018-07-15T03:49:00.593Z,62.41
2018-07-15T03:51:27.269Z,63.04
2018-07-15T03:53:53.933Z,62.37
2018-07-15T03:56:20.633Z,61.19
2018-07-15T03:58:47.308Z,61.82
2018-07-15T04:01:14.011Z,61.73
2018-07-15T04:03:40.677Z,61.44
2018-07-15T04:06:07.344Z,61.50
2018-07-15T04:08:35.948Z,60.88
2018-07-15T04:11:03.906Z,61.37
2018-07-15T04:13:30.609Z,60.61
2018-07-15T04:15:57.318Z,61.61
2018-07-15T04:18:24.011Z,61.42
2018-07-15T04:20:50.663Z,60.71
2018-07-15T04:23:17.337Z,61.28
2018-07-15T04:25:44.025Z,60.97
2018-07-15T04:28:10.717Z,61.63
2018-07-15T04:30:37.393Z,62.16
2018-07-15T04:33:05.453Z,61.63
2018-07-15T04:35:32.122Z,61.46
2018-07-15T04:37:58.848Z,60.58
2018-07-15T04:40:25.539Z,60.63
2018-07-15T04:42:52.197Z,60.46
2018-07-15T04:45:19.629Z,61.82
2018-07-15T04:47:46.329Z,61.31
2018-07-15T04:50:13.005Z,61.18
2018-07-15T04:52:39.689Z,61.20
2018-07-15T04:55:06.421Z,60.78
2018-07-15T04:57:34.145Z,61.07
2018-07-15T05:00:00.846Z,61.46
2018-07-15T05:02:27.503Z,61.01
2018-07-15T05:04:54.198Z,60.62
2018-07-15T05:07:20.961Z,61.56
2018-07-15T05:09:47.658Z,60.88
2018-07-15T05:12:14.384Z,61.72
2018-07-15T05:14:41.065Z,62.25
2018-07-15T05:17:07.750Z,62.19
2018-07-15T05:19:34.483Z,61.56
2018-07-15T05:22:01.253Z,61.89
2018-07-15T05:24:27.973Z,61.76
2018-07-15T05:26:55.554Z,61.11
2018-07-15T05:29:22.304Z,60.79
2018-07-15T05:31:48.988Z,60.15
2018-07-15T05:34:15.800Z,59.53
2018-07-15T05:36:42.466Z,59.38
2018-07-15T05:39:09.237Z,59.16
2018-07-15T05:41:37.166Z,59.36
2018-07-15T05:44:05.279Z,58.83
2018-07-15T05:46:32.150Z,59.62
2018-07-15T05:48:58.838Z,58.49
2018-07-15T05:51:25.493Z,58.97
2018-07-15T05:53:52.176Z,58.68
2018-07-15T05:56:18.846Z,59.35
2018-07-15T05:58:45.517Z,58.85
2018-07-15T06:01:12.187Z,59.47
2018-07-15T06:03:39.453Z,59.14
2018-07-15T06:06:07.065Z,59.00
2018-07-15T06:08:36.198Z,58.87
2018-07-15T06:11:05.169Z,59.46
2018-07-15T06:13:31.846Z,59.81
2018-07-15T06:15:58.522Z,59.75
2018-07-15T06:18:25.184Z,60.32
2018-07-15T06:20:51.983Z,60.34
2018-07-15T06:23:18.669Z,60.60
2018-07-15T06:25:45.383Z,60.25
2018-07-15T06:28:12.174Z,60.02
2018-07-15T06:30:38.919Z,60.82
2018-07-15T06:33:05.669Z,60.88
2018-07-15T06:35:33.421Z,60.92
2018-07-15T06:38:00.271Z,60.00
2018-07-15T06:40:37.937Z,60.85
2018-07-15T06:43:05.050Z,60.39
2018-07-15T06:45:31.725Z,60.63
2018-07-15T06:47:58.486Z,60.81
2018-07-15T06:50:25.200Z,60.86
2018-07-15T06:52:51.881Z,60.18
2018-07-15T06:55:18.549Z,60.12
2018-07-15T06:57:45.237Z,60.65
2018-07-15T07:00:12.092Z,60.87
2018-07-15T07:02:38.741Z,60.11
2018-07-15T07:05:07.566Z,60.88
2018-07-15T07:07:34.308Z,61.16
2018-07-15T07:10:00.982Z,60.63
2018-07-15T07:12:27.655Z,60.86
2018-07-15T07:14:54.305Z,60.27
2018-07-15T07:17:21.088Z,61.23
2018-07-15T07:19:47.805Z,60.92
2018-07-15T07:22:14.576Z,60.31
2018-07-15T07:24:41.228Z,61.21
2018-07-15T07:27:07.909Z,61.14
2018-07-15T07:29:35.349Z,60.27
2018-07-15T07:32:02.072Z,61.06
2018-07-15T07:34:28.864Z,60.32
2018-07-15T07:36:55.594Z,61.13
2018-07-15T07:39:22.268Z,60.38
2018-07-15T07:41:48.981Z,61.10
2018-07-15T07:44:15.654Z,60.18
2018-07-15T07:46:42.327Z,60.86
2018-07-15T07:49:09.012Z,60.98
2018-07-15T07:51:36.446Z,60.34
2018-07-15T07:54:04.077Z,60.34
2018-07-15T07:56:30.708Z,60.59
2018-07-15T07:58:57.360Z,60.24
2018-07-15T08:01:24.016Z,61.17
2018-07-15T08:03:50.781Z,60.73
2018-07-15T08:06:17.504Z,61.27
2018-07-15T08:08:44.161Z,61.34
2018-07-15T08:11:10.841Z,60.52
2018-07-15T08:13:37.505Z,61.34
2018-07-15T08:16:04.593Z,61.34
2018-07-15T08:18:31.298Z,60.64
2018-07-15T08:20:58.031Z,61.46
2018-07-15T08:23:24.721Z,61.44
2018-07-15T08:25:51.568Z,60.65
2018-07-15T08:28:18.276Z,61.53
2018-07-15T08:30:50.664Z,60.86
2018-07-15T08:33:17.361Z,61.74
2018-07-15T08:35:44.011Z,60.75
2018-07-15T08:38:11.208Z,60.76
2018-07-15T08:40:37.856Z,60.98
2018-07-15T08:43:04.617Z,60.80
2018-07-15T08:45:31.317Z,61.68
2018-07-15T08:47:58.107Z,60.97
2018-07-15T08:50:24.784Z,61.79
2018-07-15T08:52:51.457Z,61.67
2018-07-15T08:55:20.193Z,60.79
2018-07-15T08:57:46.881Z,61.23
2018-07-15T09:00:13.671Z,61.16
2018-07-15T09:02:40.353Z,61.00
2018-07-15T09:05:07.004Z,61.03
2018-07-15T09:07:34.701Z,61.07
2018-07-15T09:10:02.110Z,60.82
2018-07-15T09:12:28.843Z,61.58
2018-07-15T09:14:55.504Z,61.62
2018-07-15T09:17:22.314Z,61.15
2018-07-15T09:19:49.805Z,61.69
2018-07-15T09:22:16.508Z,61.64
2018-07-15T09:24:43.185Z,61.34
2018-07-15T09:27:09.866Z,61.76
2018-07-15T09:29:36.533Z,60.97
2018-07-15T09:32:04.392Z,61.55
2018-07-15T09:34:31.064Z,61.91
2018-07-15T09:36:57.779Z,60.92
2018-07-15T09:39:24.449Z,61.85
2018-07-15T09:41:51.104Z,61.69
2018-07-15T09:44:17.823Z,61.41
2018-07-15T09:46:44.541Z,61.77
2018-07-15T09:49:11.201Z,61.30
2018-07-15T09:51:37.899Z,61.08
2018-07-15T09:54:05.697Z,60.81
2018-07-15T09:56:32.361Z,61.06
2018-07-15T09:58:59.035Z,61.77
2018-07-15T10:01:25.725Z,61.49
2018-07-15T10:03:52.411Z,61.22
2018-07-15T10:06:19.072Z,61.39
2018-07-15T10:08:45.801Z,61.33
2018-07-15T10:11:12.450Z,60.79
2018-07-15T10:13:39.121Z,60.47
2018-07-15T10:16:07.135Z,59.40
2018-07-15T10:18:36.029Z,59.39
2018-07-15T10:21:03.924Z,59.79
2018-07-15T10:23:31.792Z,59.83
2018-07-15T10:25:58.453Z,58.47
2018-07-15T10:28:25.357Z,59.06
2018-07-15T10:30:51.997Z,59.25
2018-07-15T10:33:18.786Z,59.00
2018-07-15T10:35:45.456Z,59.08
2018-07-15T10:38:12.157Z,59.95
2018-07-15T10:40:38.820Z,59.97
2018-07-15T10:43:06.865Z,60.26
2018-07-15T10:45:34.272Z,59.25
2018-07-15T10:48:01.241Z,59.33
2018-07-15T10:50:27.927Z,60.03
2018-07-15T10:52:54.637Z,60.04
2018-07-15T10:55:21.285Z,59.30
2018-07-15T10:57:47.961Z,60.05
2018-07-15T11:00:15.544Z,60.22
2018-07-15T11:02:42.200Z,59.55
2018-07-15T11:05:08.873Z,60.37
2018-07-15T11:07:36.493Z,59.49
2018-07-15T11:10:04.266Z,59.56
2018-07-15T11:12:30.933Z,60.30
2018-07-15T11:14:57.669Z,60.08
2018-07-15T11:17:24.325Z,59.63
2018-07-15T11:19:51.039Z,60.20
2018-07-15T11:22:17.756Z,60.41
2018-07-15T11:24:44.433Z,60.44
2018-07-15T11:27:11.121Z,60.36
2018-07-15T11:29:37.801Z,59.87
2018-07-15T11:32:04.540Z,60.34
2018-07-15T11:34:31.202Z,60.73
2018-07-15T11:36:57.863Z,60.75
2018-07-15T11:39:24.532Z,60.24
2018-07-15T11:41:55.541Z,60.00
2018-07-15T11:44:22.225Z,60.02
2018-07-15T11:46:48.893Z,60.66
2018-07-15T11:49:15.572Z,59.86
2018-07-15T11:51:42.256Z,60.79
2018-07-15T11:54:08.926Z,60.00
2018-07-15T11:56:37.953Z,60.89
2018-07-15T11:59:04.658Z,60.14
2018-07-15T12:01:31.362Z,60.01
2018-07-15T12:03:58.099Z,60.69
2018-07-15T12:06:24.773Z,60.13
2018-07-15T12:08:51.457Z,61.18
2018-07-15T12:11:18.125Z,60.91
2018-07-15T12:13:44.795Z,61.03
2018-07-15T12:16:11.457Z,60.33
2018-07-15T12:18:38.256Z,60.24
2018-07-15T12:21:05.736Z,60.92
2018-07-15T12:23:33.372Z,61.08
2018-07-15T12:26:00.057Z,60.26
2018-07-15T12:28:26.713Z,60.64
2018-07-15T12:30:53.377Z,60.61
2018-07-15T12:33:20.240Z,61.36
2018-07-15T12:35:48.098Z,61.08
2018-07-15T12:38:14.744Z,60.85
2018-07-15T12:40:41.389Z,60.30
2018-07-15T12:43:08.075Z,61.22
2018-07-15T12:45:34.736Z,60.43
2018-07-15T12:48:01.455Z,60.90
2018-07-15T12:50:28.120Z,60.41
2018-07-15T12:52:54.781Z,60.68
2018-07-15T12:55:21.437Z,61.30
2018-07-15T12:57:48.094Z,60.59
2018-07-15T13:00:14.758Z,61.23
2018-07-15T13:02:41.421Z,61.12
2018-07-15T13:05:08.097Z,60.42
2018-07-15T13:07:34.766Z,60.44
2018-07-15T13:10:01.623Z,60.54
2018-07-15T13:12:28.280Z,60.81
2018-07-15T13:14:55.093Z,60.71
2018-07-15T13:17:21.762Z,60.65
2018-07-15T13:19:48.439Z,60.61
2018-07-15T13:22:15.102Z,61.28
2018-07-15T13:24:41.786Z,60.52
2018-07-15T13:27:08.447Z,61.17
2018-07-15T13:29:36.512Z,61.55
2018-07-15T13:32:04.128Z,60.47
2018-07-15T13:34:30.816Z,60.79
2018-07-15T13:36:57.478Z,61.26
2018-07-15T13:39:24.155Z,61.31
2018-07-15T13:41:50.897Z,61.18
2018-07-15T13:44:17.741Z,60.49
2018-07-15T13:46:44.409Z,61.03
2018-07-15T13:49:11.092Z,60.27
2018-07-15T13:51:37.769Z,60.34
2018-07-15T13:54:04.642Z,60.20
2018-07-15T13:56:31.365Z,61.08
2018-07-15T13:58:58.081Z,60.27
2018-07-15T14:01:24.736Z,60.30
2018-07-15T14:03:51.381Z,61.13
2018-07-15T14:06:18.028Z,61.35
2018-07-15T14:08:44.680Z,61.34
2018-07-15T14:11:11.336Z,60.22
2018-07-15T14:13:37.996Z,61.40
2018-07-15T14:16:04.671Z,60.70
2018-07-15T14:18:31.328Z,60.77
2018-07-15T14:20:58.356Z,61.62
2018-07-15T14:23:25.054Z,61.02
2018-07-15T14:25:51.721Z,60.93
2018-07-15T14:28:38.449Z,61.00
2018-07-15T14:31:15.298Z,61.03
2018-07-15T14:33:45.070Z,61.57
2018-07-15T14:36:43.115Z,61.77
2018-07-15T14:39:09.945Z,60.94
2018-07-15T14:41:36.881Z,61.59
2018-07-15T14:44:05.817Z,61.59
2018-07-15T14:46:33.579Z,61.62
2018-07-15T14:49:00.212Z,60.86
2018-07-15T14:51:26.914Z,61.04
2018-07-15T14:53:53.562Z,61.20
2018-07-15T14:56:20.263Z,61.80
2018-07-15T14:58:46.917Z,61.04
2018-07-15T19:48:18.650Z,60.83
2018-07-15T19:50:45.676Z,60.71
2018-07-15T19:53:12.995Z,61.01
2018-07-15T19:55:40.028Z,61.09
2018-07-15T19:58:07.711Z,60.41
2018-07-15T20:00:36.597Z,61.36
2018-07-15T20:03:03.595Z,60.71
2018-07-15T20:05:32.720Z,60.68
2018-07-15T20:07:59.669Z,60.81
2018-07-15T20:10:26.668Z,60.67
2018-07-15T20:12:53.686Z,61.50
2018-07-15T20:15:20.681Z,60.78
2018-07-15T20:17:47.645Z,60.97
2018-07-15T20:20:16.247Z,61.01
2018-07-15T20:22:44.262Z,60.88
2018-07-15T20:25:11.502Z,61.85
2018-07-15T20:27:38.645Z,60.79
2018-07-15T20:30:05.608Z,60.88
2018-07-15T20:32:32.586Z,61.67
2018-07-15T20:34:59.544Z,60.96
2018-07-15T20:37:26.483Z,61.02
2018-07-15T20:39:53.373Z,61.14
2018-07-15T20:42:20.176Z,60.97
2018-07-15T20:44:46.964Z,61.52
2018-07-15T20:47:14.546Z,61.84
2018-07-15T20:49:41.217Z,61.14
2018-07-15T20:52:08.975Z,62.06
2018-07-15T20:54:36.107Z,61.30
2018-07-15T20:57:02.877Z,62.10
2018-07-15T20:59:29.584Z,61.46
2018-07-15T21:01:56.260Z,61.74
2018-07-15T21:04:22.960Z,61.73
2018-07-15T21:06:49.640Z,62.00
2018-07-15T21:09:16.304Z,61.39
2018-07-15T21:11:44.057Z,60.96
2018-07-15T21:14:10.716Z,61.83
2018-07-15T21:16:37.389Z,61.02
2018-07-15T21:19:04.269Z,61.21
2018-07-15T21:21:30.917Z,61.99
2018-07-15T21:23:57.597Z,61.33
2018-07-15T21:26:24.269Z,61.78
2018-07-15T21:28:50.918Z,60.98
2018-07-15T21:31:17.734Z,61.70
2018-07-15T21:33:45.487Z,61.34
2018-07-15T21:36:12.162Z,62.08
2018-07-15T21:38:38.817Z,61.70
2018-07-15T21:41:06.507Z,61.47
2018-07-15T21:43:33.155Z,61.96
2018-07-15T21:45:59.888Z,62.13
2018-07-15T21:48:26.520Z,61.80
2018-07-15T21:50:53.208Z,62.10
2018-07-15T21:53:19.852Z,61.59
2018-07-15T21:55:46.507Z,61.37
2018-07-15T21:58:14.265Z,62.15
2018-07-15T22:00:40.912Z,62.16
2018-07-15T22:03:07.581Z,61.99
2018-07-15T22:05:34.217Z,61.07
2018-07-15T22:08:06.753Z,62.00
2018-07-15T22:10:37.734Z,61.91
2018-07-15T22:13:04.410Z,62.23
2018-07-15T22:15:31.058Z,60.94
2018-07-15T22:17:57.753Z,62.10
2018-07-15T22:20:24.406Z,61.33
2018-07-15T22:22:51.061Z,62.08
2018-07-15T22:25:17.700Z,62.04
2018-07-15T22:27:45.049Z,61.20
2018-07-15T22:30:11.697Z,62.10
2018-07-15T22:32:38.366Z,61.89
2018-07-15T22:35:05.020Z,61.30
2018-07-15T22:37:31.688Z,61.32
2018-07-15T22:39:58.346Z,61.53
2018-07-15T22:42:25.027Z,61.29
2018-07-15T22:44:51.681Z,61.04
2018-07-15T22:47:18.359Z,61.49
2018-07-15T22:49:45.011Z,61.96
2018-07-15T22:52:11.700Z,61.77
2018-07-15T22:54:38.383Z,61.42
2018-07-15T22:57:05.064Z,61.83
2018-07-15T22:59:31.791Z,61.87
2018-07-15T23:01:58.440Z,61.52
2018-07-15T23:05:31.289Z,62.27
2018-07-15T23:07:58.814Z,63.00
2018-07-15T23:10:25.461Z,62.65
2018-07-15T23:12:52.748Z,62.37
2018-07-15T23:15:19.407Z,61.92
2018-07-15T23:17:46.273Z,61.54
2018-07-15T23:20:13.593Z,61.43
2018-07-15T23:22:40.261Z,62.48
2018-07-15T23:25:08.121Z,61.81
2018-07-15T23:27:35.247Z,61.99
2018-07-15T23:30:02.629Z,61.49
2018-07-15T23:32:29.293Z,61.51
2018-07-15T23:34:55.956Z,61.05
2018-07-15T23:37:22.612Z,62.38
2018-07-15T23:39:49.254Z,62.40
2018-07-15T23:42:15.895Z,62.13
2018-07-15T23:44:42.564Z,61.48
2018-07-15T23:47:09.213Z,61.57
2018-07-15T23:49:36.557Z,61.32
2018-07-15T23:52:03.193Z,62.28
2018-07-15T23:54:29.860Z,61.76
2018-07-15T23:56:56.512Z,62.36
2018-07-15T23:59:23.169Z,61.97
